sensor_id;sensor_type;location;lat;lon;timestamp;P1;durP1;ratioP1;P2;durP2;ratioP2
4430;SDS011;2228;48.140;11.488;2023-10-13T19:26:41;20.48;;;7.68;;
4430;SDS011;2228;48.140;11.488;2023-10-13T19:29:08;22.33;;;9.48;;
4430;SDS011;2228;48.140;11.488;2023-10-13T19:31:35;19.10;;;9.20;;
4430;SDS011;2228;48.140;11.488;2023-10-13T19:34:03;21.90;;;9.10;;
4430;SDS011;2228;48.140;11.488;2023-10-13T19:36:35;20.88;;;9.25;;
4430;SDS011;2228;48.140;11.488;2023-10-13T19:39:03;16.83;;;8.80;;
4430;SDS011;2228;48.140;11.488;2023-10-13T19:41:31;24.42;;;12.30;;
4430;SDS011;2228;48.140;11.488;2023-10-13T19:44:00;23.25;;;12.82;;
4430;SDS011;2228;48.140;11.488;2023-10-13T19:46:28;59.55;;;31.55;;
4430;SDS011;2228;48.140;11.488;2023-10-13T19:48:56;42.38;;;23.13;;
4430;SDS011;2228;48.140;11.488;2023-10-13T19:51:24;22.70;;;10.43;;
4430;SDS011;2228;48.140;11.488;2023-10-13T19:53:53;24.75;;;12.60;;
4430;SDS011;2228;48.140;11.488;2023-10-13T19:56:21;14.53;;;8.00;;
4430;SDS011;2228;48.140;11.488;2023-10-13T19:58:49;11.43;;;5.00;;
4430;SDS011;2228;48.140;11.488;2023-10-13T20:01:19;7.10;;;3.60;;
4430;SDS011;2228;48.140;11.488;2023-10-13T20:03:47;11.45;;;4.03;;
4430;SDS011;2228;48.140;11.488;2023-10-13T20:06:19;10.00;;;3.53;;
4430;SDS011;2228;48.140;11.488;2023-10-13T20:08:48;11.02;;;3.92;;
4430;SDS011;2228;48.140;11.488;2023-10-13T20:11:15;8.65;;;3.53;;
4430;SDS011;2228;48.140;11.488;2023-10-13T20:13:43;6.10;;;3.27;;
4430;SDS011;2228;48.140;11.488;2023-10-13T20:16:11;6.75;;;3.55;;
4430;SDS011;2228;48.140;11.488;2023-10-13T20:18:46;9.13;;;3.42;;
4430;SDS011;2228;48.140;11.488;2023-10-13T20:21:13;8.13;;;3.60;;
4430;SDS011;2228;48.140;11.488;2023-10-13T20:23:41;8.95;;;3.40;;
4430;SDS011;2228;48.140;11.488;2023-10-13T20:26:08;8.43;;;3.88;;
4430;SDS011;2228;48.140;11.488;2023-10-13T20:28:40;12.17;;;5.17;;
4430;SDS011;2228;48.140;11.488;2023-10-13T20:31:07;11.25;;;5.63;;
4430;SDS011;2228;48.140;11.488;2023-10-13T20:33:35;21.30;;;11.35;;
4430;SDS011;2228;48.140;11.488;2023-10-13T20:36:04;19.95;;;10.68;;
4430;SDS011;2228;48.140;11.488;2023-10-13T20:38:31;22.23;;;12.48;;
4430;SDS011;2228;48.140;11.488;2023-10-13T20:40:58;16.23;;;6.30;;
4430;SDS011;2228;48.140;11.488;2023-10-13T20:43:28;7.63;;;4.00;;
4430;SDS011;2228;48.140;11.488;2023-10-13T20:45:55;7.32;;;3.42;;
4430;SDS011;2228;48.140;11.488;2023-10-13T20:48:24;8.02;;;3.90;;
4430;SDS011;2228;48.140;11.488;2023-10-13T20:50:56;7.05;;;3.30;;
4430;SDS011;2228;48.140;11.488;2023-10-13T20:53:25;8.40;;;3.40;;
4430;SDS011;2228;48.140;11.488;2023-10-13T20:56:02;8.65;;;3.10;;
4430;SDS011;2228;48.140;11.488;2023-10-13T20:58:30;6.43;;;3.20;;
4430;SDS011;2228;48.140;11.488;2023-10-13T21:00:58;9.55;;;3.42;;
4430;SDS011;2228;48.140;11.488;2023-10-13T21:03:33;9.37;;;3.33;;
4430;SDS011;2228;48.140;11.488;2023-10-13T21:06:03;7.75;;;3.10;;
4430;SDS011;2228;48.140;11.488;2023-10-13T21:08:34;6.70;;;3.10;;
4430;SDS011;2228;48.140;11.488;2023-10-13T21:11:03;5.10;;;2.90;;
4430;SDS011;2228;48.140;11.488;2023-10-13T21:13:32;10.63;;;3.28;;
4430;SDS011;2228;48.140;11.488;2023-10-13T21:15:59;6.90;;;3.15;;
4430;SDS011;2228;48.140;11.488;2023-10-13T21:18:26;7.28;;;3.50;;
4430;SDS011;2228;48.140;11.488;2023-10-13T21:21:03;6.75;;;3.28;;
4430;SDS011;2228;48.140;11.488;2023-10-13T21:23:31;7.15;;;3.30;;
4430;SDS011;2228;48.140;11.488;2023-10-13T21:26:01;7.25;;;2.90;;
4430;SDS011;2228;48.140;11.488;2023-10-13T21:28:28;6.38;;;3.20;;
4430;SDS011;2228;48.140;11.488;2023-10-13T21:31:04;8.02;;;4.20;;
4430;SDS011;2228;48.140;11.488;2023-10-13T21:33:31;11.93;;;4.35;;
4430;SDS011;2228;48.140;11.488;2023-10-13T21:36:04;13.50;;;7.30;;
4430;SDS011;2228;48.140;11.488;2023-10-13T21:38:34;47.30;;;24.40;;
4430;SDS011;2228;48.140;11.488;2023-10-13T21:41:04;7.20;;;3.50;;
4430;SDS011;2228;48.140;11.488;2023-10-13T21:43:31;9.75;;;3.40;;
4430;SDS011;2228;48.140;11.488;2023-10-13T21:46:04;6.40;;;3.42;;
4430;SDS011;2228;48.140;11.488;2023-10-13T21:48:33;10.30;;;3.70;;
4430;SDS011;2228;48.140;11.488;2023-10-13T21:51:06;17.23;;;4.10;;
4430;SDS011;2228;48.140;11.488;2023-10-13T21:53:34;11.32;;;3.17;;
4430;SDS011;2228;48.140;11.488;2023-10-13T21:56:01;6.80;;;2.85;;
4430;SDS011;2228;48.140;11.488;2023-10-13T21:58:30;9.02;;;3.53;;
4430;SDS011;2228;48.140;11.488;2023-10-13T22:00:57;7.30;;;2.92;;
4430;SDS011;2228;48.140;11.488;2023-10-13T22:03:25;5.10;;;3.28;;
4430;SDS011;2228;48.140;11.488;2023-10-13T22:05:54;7.05;;;3.00;;
4430;SDS011;2228;48.140;11.488;2023-10-13T22:08:26;6.80;;;3.97;;
4430;SDS011;2228;48.140;11.488;2023-10-13T22:10:54;6.33;;;3.30;;
4430;SDS011;2228;48.140;11.488;2023-10-13T22:13:22;7.35;;;2.90;;
4430;SDS011;2228;48.140;11.488;2023-10-13T22:15:52;9.23;;;3.67;;
4430;SDS011;2228;48.140;11.488;2023-10-13T22:18:19;13.77;;;4.03;;
4430;SDS011;2228;48.140;11.488;2023-10-13T22:20:46;6.25;;;3.33;;
4430;SDS011;2228;48.140;11.488;2023-10-13T22:23:13;7.50;;;2.65;;
4430;SDS011;2228;48.140;11.488;2023-10-13T22:25:40;11.55;;;3.40;;
4430;SDS011;2228;48.140;11.488;2023-10-13T22:28:10;7.18;;;3.00;;
4430;SDS011;2228;48.140;11.488;2023-10-13T22:30:38;6.95;;;3.10;;
4430;SDS011;2228;48.140;11.488;2023-10-13T22:33:06;6.63;;;2.90;;
4430;SDS011;2228;48.140;11.488;2023-10-13T22:35:33;9.40;;;3.38;;
4430;SDS011;2228;48.140;11.488;2023-10-13T22:38:00;9.57;;;3.30;;
4430;SDS011;2228;48.140;11.488;2023-10-13T22:40:32;6.65;;;3.10;;
4430;SDS011;2228;48.140;11.488;2023-10-13T22:42:59;6.27;;;3.33;;
4430;SDS011;2228;48.140;11.488;2023-10-13T22:45:26;7.93;;;3.00;;
4430;SDS011;2228;48.140;11.488;2023-10-13T22:47:56;5.30;;;2.73;;
4430;SDS011;2228;48.140;11.488;2023-10-13T22:50:24;6.38;;;3.47;;
4430;SDS011;2228;48.140;11.488;2023-10-13T22:52:51;11.23;;;3.30;;
4430;SDS011;2228;48.140;11.488;2023-10-13T22:55:21;8.50;;;3.67;;
4430;SDS011;2228;48.140;11.488;2023-10-13T22:57:53;7.73;;;3.23;;
4430;SDS011;2228;48.140;11.488;2023-10-13T23:00:22;9.18;;;3.00;;
4430;SDS011;2228;48.140;11.488;2023-10-13T23:03:09;10.60;;;3.03;;
4430;SDS011;2228;48.140;11.488;2023-10-13T23:05:39;11.80;;;3.45;;
4430;SDS011;2228;48.140;11.488;2023-10-13T23:08:17;5.00;;;2.80;;
4430;SDS011;2228;48.140;11.488;2023-10-13T23:10:47;6.97;;;2.90;;
4430;SDS011;2228;48.140;11.488;2023-10-13T23:13:16;8.10;;;3.65;;
4430;SDS011;2228;48.140;11.488;2023-10-13T23:15:45;8.40;;;3.60;;
4430;SDS011;2228;48.140;11.488;2023-10-13T23:18:13;8.25;;;3.13;;
4430;SDS011;2228;48.140;11.488;2023-10-13T23:20:42;10.37;;;3.43;;
4430;SDS011;2228;48.140;11.488;2023-10-13T23:23:10;7.93;;;3.17;;
4430;SDS011;2228;48.140;11.488;2023-10-13T23:25:38;9.23;;;3.30;;
4430;SDS011;2228;48.140;11.488;2023-10-13T23:28:06;8.93;;;3.10;;
4430;SDS011;2228;48.140;11.488;2023-10-13T23:30:34;6.30;;;3.10;;
4430;SDS011;2228;48.140;11.488;2023-10-13T23:33:03;9.75;;;3.22;;
4430;SDS011;2228;48.140;11.488;2023-10-13T23:35:36;8.68;;;3.60;;
4430;SDS011;2228;48.140;11.488;2023-10-13T23:38:07;8.70;;;3.38;;
4430;SDS011;2228;48.140;11.488;2023-10-13T23:40:43;8.48;;;3.38;;
4430;SDS011;2228;48.140;11.488;2023-10-13T23:43:11;8.33;;;3.60;;
4430;SDS011;2228;48.140;11.488;2023-10-13T23:45:49;10.43;;;3.85;;
4430;SDS011;2228;48.140;11.488;2023-10-13T23:48:23;8.48;;;3.40;;
4430;SDS011;2228;48.140;11.488;2023-10-13T23:50:50;9.85;;;3.58;;
4430;SDS011;2228;48.140;11.488;2023-10-13T23:53:27;11.50;;;3.50;;
4430;SDS011;2228;48.140;11.488;2023-10-13T23:55:59;8.73;;;3.50;;
4430;SDS011;2228;48.140;11.488;2023-10-13T23:58:29;5.90;;;3.33;;
